Preview of NWS' New Version of Forecast
This preview is not operational and should not be used for support decisions.

Terminal Aerodrome Forecast (TAF)

Issued by National Weather Service (NWS)

                            
000
FTUS41 KGYX 210958 AAD
TAFRKD
TAF AMD
KRKD 210958Z 2110/2206 VRB03KT 3SM BR SCT004
      TEMPO 2110/2112 1SM BR OVC004
     FM211400 17007KT P6SM SCT050 BKN100
     FM211900 17006KT 5SM -SHRA OVC025
     FM212200 16005KT 3SM TSRA OVC015CB
     FM220200 16004KT 1 1/2SM -SHRA BR OVC005=